createdAt,value
2022-12-12T00:02:04.914Z,100391.09
2022-12-12T00:04:33.593Z,100388.34
2022-12-12T00:07:00.041Z,100392.75
2022-12-12T00:09:26.382Z,100393.03
2022-12-12T00:11:52.900Z,100395.00
2022-12-12T00:14:19.237Z,100393.84
2022-12-12T00:16:45.774Z,100390.28
2022-12-12T00:19:12.903Z,100384.78
2022-12-12T00:21:39.271Z,100395.00
2022-12-12T00:24:07.158Z,100398.56
2022-12-12T00:26:34.678Z,100404.41
2022-12-12T00:29:02.850Z,100397.28
2022-12-12T00:31:30.135Z,100403.59
2022-12-12T00:33:56.845Z,100400.84
2022-12-12T00:36:26.529Z,100403.91
2022-12-12T00:38:54.806Z,100414.97
2022-12-12T00:41:22.180Z,100400.34
2022-12-12T00:43:48.872Z,100408.09
2022-12-12T00:46:17.878Z,100404.88
2022-12-12T00:48:44.874Z,100408.72
2022-12-12T00:51:17.943Z,100408.25
2022-12-12T00:53:46.437Z,100403.88
2022-12-12T00:56:17.231Z,100413.75
2022-12-12T00:58:43.751Z,100411.50
2022-12-12T01:01:17.892Z,100412.94
2022-12-12T01:03:44.779Z,100410.19
2022-12-12T01:06:11.431Z,100410.50
2022-12-12T01:08:40.940Z,100416.31
2022-12-12T01:11:09.289Z,100419.09
2022-12-12T01:13:36.161Z,100418.28
2022-12-12T01:16:02.667Z,100418.28
2022-12-12T01:18:29.720Z,100422.97
2022-12-12T01:20:56.066Z,100421.03
2022-12-12T01:23:22.508Z,100419.91
2022-12-12T01:25:49.276Z,100420.72
2022-12-12T01:28:15.764Z,100421.53
2022-12-12T01:30:43.342Z,100422.34
2022-12-12T01:33:12.210Z,100422.34
2022-12-12T01:35:41.220Z,100430.63
2022-12-12T01:38:07.517Z,100430.63
2022-12-12T01:40:33.819Z,100436.16
2022-12-12T01:43:00.424Z,100438.59
2022-12-12T01:46:08.634Z,100438.09
2022-12-12T01:48:45.594Z,100443.78
2022-12-12T01:51:16.287Z,100439.91
2022-12-12T01:53:44.346Z,100444.28
2022-12-12T01:56:14.973Z,100443.16
2022-12-12T01:58:47.864Z,100449.81
2022-12-12T02:01:16.232Z,100451.44
2022-12-12T02:03:44.761Z,100447.88
2022-12-12T02:06:14.768Z,100442.34
2022-12-12T02:08:42.157Z,100446.72
2022-12-12T02:11:09.065Z,100446.25
2022-12-12T02:13:36.317Z,100442.97
2022-12-12T02:16:35.664Z,100441.66
2022-12-12T02:19:08.281Z,100444.09
2022-12-12T02:21:34.599Z,100448.00
2022-12-12T02:24:36.065Z,100449.75
2022-12-12T02:27:24.313Z,100449.75
2022-12-12T02:30:09.589Z,100446.38
2022-12-12T02:33:14.122Z,100446.66
2022-12-12T02:35:56.854Z,100448.63
2022-12-12T02:38:52.320Z,100448.63
2022-12-12T02:41:37.389Z,100458.03
2022-12-12T02:44:29.062Z,100455.38
2022-12-12T02:47:18.702Z,100459.28
2022-12-12T02:50:04.924Z,100456.19
2022-12-12T02:52:32.554Z,100457.81
2022-12-12T02:54:59.128Z,100460.28
2022-12-12T02:57:26.934Z,100456.69
2022-12-12T03:00:01.758Z,100457.81
2022-12-12T03:02:47.039Z,100463.06
2022-12-12T03:05:50.757Z,100461.72
2022-12-12T03:09:12.275Z,100459.44
2022-12-12T03:11:46.443Z,100461.91
2022-12-12T03:14:33.537Z,100458.03
2022-12-12T03:17:08.610Z,100455.75
2022-12-12T03:19:59.193Z,100462.41
2022-12-12T03:22:42.868Z,100456.28
2022-12-12T03:25:18.552Z,100459.53
2022-12-12T03:27:59.235Z,100460.66
2022-12-12T03:30:27.982Z,100460.03
2022-12-12T03:33:00.506Z,100458.09
2022-12-12T03:35:40.496Z,100457.75
2022-12-12T03:38:14.224Z,100451.63
2022-12-12T03:40:48.776Z,100452.44
2022-12-12T03:43:19.855Z,100441.09
2022-12-12T03:46:09.210Z,100450.50
2022-12-12T03:49:04.735Z,100451.31
2022-12-12T03:51:36.316Z,100444.34
2022-12-12T03:54:23.021Z,100448.22
2022-12-12T03:57:10.565Z,100455.69
2022-12-12T03:59:42.588Z,100455.88
2022-12-12T04:02:24.360Z,100447.13
2022-12-12T04:04:56.538Z,100447.59
2022-12-12T04:07:29.698Z,100452.81
2022-12-12T04:10:15.405Z,100442.56
2022-12-12T04:13:00.160Z,100451.69
2022-12-12T04:15:51.845Z,100453.63
2022-12-12T04:18:45.724Z,100456.06
2022-12-12T04:21:41.937Z,100458.50
2022-12-12T04:24:38.897Z,100457.69
2022-12-12T04:27:12.365Z,100460.94
2022-12-12T04:29:46.210Z,100462.91
2022-12-12T04:32:25.833Z,100464.34
2022-12-12T04:35:02.292Z,100468.75
2022-12-12T04:37:37.305Z,100473.94
2022-12-12T04:40:09.342Z,100461.75
2022-12-12T04:42:45.220Z,100473.13
2022-12-12T04:45:20.585Z,100478.31
2022-12-12T04:47:51.152Z,100473.63
2022-12-12T04:50:22.124Z,100474.75
2022-12-12T04:52:50.291Z,100477.22
2022-12-12T04:55:27.418Z,100479.44
2022-12-12T04:57:55.090Z,100481.06
2022-12-12T05:00:24.987Z,100482.22
2022-12-12T05:03:15.226Z,100470.69
2022-12-12T05:05:48.758Z,100486.91
2022-12-12T05:08:23.330Z,100483.66
2022-12-12T05:10:56.018Z,100491.44
2022-12-12T05:13:27.599Z,100488.19
2022-12-12T05:15:57.714Z,100489.59
2022-12-12T05:18:24.344Z,100495.44
2022-12-12T05:20:51.326Z,100491.06
2022-12-12T05:23:19.574Z,100482.78
2022-12-12T05:25:45.991Z,100483.94
2022-12-12T05:28:12.892Z,100481.47
2022-12-12T05:30:39.623Z,100480.34
2022-12-12T05:33:06.312Z,100486.97
2022-12-12T05:35:36.744Z,100497.19
2022-12-12T05:38:04.168Z,100490.88
2022-12-12T05:40:30.837Z,100496.06
2022-12-12T05:42:57.638Z,100502.09
2022-12-12T05:45:24.486Z,100505.69
2022-12-12T05:47:51.017Z,100496.25
2022-12-12T05:50:17.522Z,100497.88
2022-12-12T05:52:44.211Z,100499.84
2022-12-12T05:55:10.947Z,100506.69
2022-12-12T05:57:37.538Z,100508.63
2022-12-12T06:00:04.983Z,100511.38
2022-12-12T06:02:31.395Z,100508.63
2022-12-12T06:04:57.871Z,100510.56
2022-12-12T06:07:24.454Z,100509.72
2022-12-12T06:09:50.820Z,100504.53
2022-12-12T06:12:17.360Z,100501.28
2022-12-12T06:14:43.807Z,100500.47
2022-12-12T06:17:10.172Z,100509.03
2022-12-12T06:19:36.612Z,100503.03
2022-12-12T06:22:02.997Z,100505.81
2022-12-12T06:24:29.356Z,100497.84
2022-12-12T06:26:55.728Z,100505.59
2022-12-12T06:29:22.146Z,100513.06
2022-12-12T06:31:48.509Z,100513.38
2022-12-12T06:34:15.002Z,100520.03
2022-12-12T06:36:41.441Z,100520.03
2022-12-12T06:39:07.816Z,100518.38
2022-12-12T06:41:34.585Z,100514.19
2022-12-12T06:44:01.091Z,100526.84
2022-12-12T06:46:29.545Z,100533.19
2022-12-12T06:48:56.294Z,100530.94
2022-12-12T06:51:26.502Z,100527.88
2022-12-12T06:53:53.382Z,100528.69
2022-12-12T06:56:23.408Z,100524.28
2022-12-12T06:58:50.714Z,100527.06
2022-12-12T07:01:19.477Z,100527.06
2022-12-12T07:03:46.937Z,100533.38
2022-12-12T07:06:13.746Z,100527.88
2022-12-12T07:08:40.139Z,100523.97
2022-12-12T07:11:10.527Z,100535.00
2022-12-12T07:13:37.233Z,100535.81
2022-12-12T07:16:04.352Z,100532.44
2022-12-12T07:18:30.915Z,100536.03
2022-12-12T07:20:57.466Z,100531.00
2022-12-12T07:23:23.819Z,100531.81
2022-12-12T07:25:50.427Z,100539.78
2022-12-12T07:28:17.076Z,100534.28
2022-12-12T07:30:46.155Z,100540.94
2022-12-12T07:33:14.084Z,100534.88
2022-12-12T07:35:41.676Z,100549.19
2022-12-12T07:38:08.042Z,100539.28
2022-12-12T07:40:34.541Z,100531.50
2022-12-12T07:43:00.950Z,100531.50
2022-12-12T07:45:28.727Z,100541.41
2022-12-12T07:47:55.802Z,100545.81
2022-12-12T07:50:22.549Z,100549.38
2022-12-12T07:52:49.195Z,100549.38
2022-12-12T07:55:16.547Z,100556.53
2022-12-12T07:57:42.914Z,100555.69
2022-12-12T08:00:13.120Z,100564.81
2022-12-12T08:02:40.317Z,100557.03
2022-12-12T08:05:09.325Z,100558.16
2022-12-12T08:07:35.764Z,100557.84
2022-12-12T08:10:03.155Z,100564.19
2022-12-12T08:12:30.618Z,100566.31
2022-12-12T08:14:57.017Z,100558.84
2022-12-12T08:17:23.919Z,100575.09
2022-12-12T08:19:50.548Z,100575.09
2022-12-12T08:22:17.493Z,100569.56
2022-12-12T08:24:43.881Z,100571.19
2022-12-12T08:27:15.476Z,100578.06
2022-12-12T08:29:42.053Z,100578.88
2022-12-12T08:32:08.652Z,100582.16
2022-12-12T08:34:35.272Z,100576.31
2022-12-12T08:37:01.667Z,100584.25
2022-12-12T08:39:28.226Z,100572.09
2022-12-12T08:41:54.699Z,100580.06
2022-12-12T08:44:21.801Z,100578.94
2022-12-12T08:46:49.570Z,100576.66
2022-12-12T08:49:16.079Z,100587.41
2022-12-12T08:51:42.936Z,100575.72
2022-12-12T08:54:11.698Z,100589.25
2022-12-12T08:56:38.263Z,100594.44
2022-12-12T08:59:04.981Z,100605.16
2022-12-12T09:01:31.721Z,100599.34
2022-12-12T09:03:58.660Z,100605.69
2022-12-12T09:06:26.195Z,100599.03
2022-12-12T09:08:53.220Z,100603.09
2022-12-12T09:11:19.728Z,100608.00
2022-12-12T09:13:46.118Z,100605.72
2022-12-12T09:16:12.855Z,100611.44
2022-12-12T09:18:44.578Z,100611.97
2022-12-12T09:21:14.762Z,100617.97
2022-12-12T09:23:41.271Z,100621.22
2022-12-12T09:26:09.190Z,100621.22
2022-12-12T09:28:36.306Z,100620.94
2022-12-12T09:31:08.453Z,100617.34
2022-12-12T09:33:36.959Z,100618.16
2022-12-12T09:36:04.901Z,100620.28
2022-12-12T09:38:31.880Z,100612.19
2022-12-12T09:41:02.843Z,100616.91
2022-12-12T09:43:47.922Z,100626.59
2022-12-12T09:46:38.504Z,100619.16
2022-12-12T09:49:13.207Z,100619.97
2022-12-12T09:51:42.161Z,100619.66
2022-12-12T09:54:13.434Z,100621.94
2022-12-12T09:56:51.635Z,100625.81
2022-12-12T09:59:29.556Z,100631.03
2022-12-12T10:02:25.576Z,100633.09
2022-12-12T10:05:04.060Z,100620.09
2022-12-12T10:07:41.348Z,100626.75
2022-12-12T10:10:34.620Z,100618.78
2022-12-12T10:13:04.607Z,100621.22
2022-12-12T10:15:38.668Z,100614.88
2022-12-12T10:18:14.129Z,100619.78
2022-12-12T10:20:53.531Z,100617.34
2022-12-12T10:23:29.245Z,100621.09
2022-12-12T10:26:07.026Z,100611.69
2022-12-12T10:28:35.350Z,100615.47
2022-12-12T10:31:20.539Z,100615.47
2022-12-12T10:34:24.755Z,100617.09
2022-12-12T10:37:01.216Z,100626.09
2022-12-12T10:39:42.790Z,100613.41
2022-12-12T10:42:38.611Z,100617.81
2022-12-12T10:45:23.171Z,100619.63
2022-12-12T10:47:50.114Z,100618.16
2022-12-12T10:50:32.629Z,100609.06
2022-12-12T10:52:58.964Z,100611.69
2022-12-12T10:55:37.310Z,100610.56
2022-12-12T10:58:08.155Z,100608.50
2022-12-12T11:00:40.955Z,100606.41
2022-12-12T11:03:29.290Z,100604.78
2022-12-12T11:05:57.519Z,100598.59
2022-12-12T11:08:28.686Z,100603.31
2022-12-12T11:11:01.963Z,100597.78
2022-12-12T11:13:29.440Z,100593.06
2022-12-12T11:16:01.982Z,100597.28
2022-12-12T11:18:29.615Z,100601.69
2022-12-12T11:21:05.225Z,100599.25
2022-12-12T11:23:33.538Z,100603.31
2022-12-12T11:26:08.024Z,100598.59
2022-12-12T11:28:39.863Z,100599.09
2022-12-12T11:31:10.587Z,100602.34
2022-12-12T11:33:45.544Z,100598.16
2022-12-12T11:36:18.904Z,100596.69
2022-12-12T11:38:49.542Z,100592.16
2022-12-12T11:41:16.134Z,100584.06
2022-12-12T11:43:45.544Z,100591.69
2022-12-12T11:46:15.119Z,100590.25
2022-12-12T11:48:47.935Z,100583.75
2022-12-12T11:51:31.230Z,100584.25
2022-12-12T11:53:58.298Z,100578.09
2022-12-12T11:56:37.722Z,100578.56
2022-12-12T11:59:22.577Z,100576.78
2022-12-12T12:02:04.157Z,100571.13
2022-12-12T12:04:46.952Z,100572.91
2022-12-12T12:07:38.988Z,100563.19
2022-12-12T12:10:37.124Z,100566.25
2022-12-12T12:13:18.387Z,100567.44
2022-12-12T12:16:08.046Z,100567.75
2022-12-12T12:19:01.696Z,100568.75
2022-12-12T12:21:55.709Z,100566.97
2022-12-12T12:24:37.217Z,100568.25
2022-12-12T12:27:19.234Z,100558.50
2022-12-12T12:30:06.355Z,100570.03
2022-12-12T12:32:59.071Z,100566.31
2022-12-12T12:35:25.356Z,100562.56
2022-12-12T12:38:10.733Z,100562.72
2022-12-12T12:40:59.321Z,100553.28
2022-12-12T12:43:47.742Z,100554.25
2022-12-12T12:46:42.508Z,100552.00
2022-12-12T12:49:22.351Z,100549.06
2022-12-12T12:52:03.049Z,100546.28
2022-12-12T12:54:43.130Z,100553.75
2022-12-12T12:57:34.835Z,100557.97
2022-12-12T13:00:15.931Z,100561.09
2022-12-12T13:03:04.125Z,100552.59
2022-12-12T13:05:41.527Z,100550.13
2022-12-12T13:08:11.491Z,100553.56
2022-12-12T13:10:44.429Z,100547.88
2022-12-12T13:13:23.095Z,100543.63
2022-12-12T13:15:55.910Z,100548.50
2022-12-12T13:18:22.288Z,100547.00
2022-12-12T13:21:00.803Z,100546.72
2022-12-12T13:23:56.517Z,100544.41
2022-12-12T13:26:46.211Z,100552.38
2022-12-12T13:29:47.978Z,100545.22
2022-12-12T13:32:40.077Z,100542.44
2022-12-12T13:35:12.252Z,100541.97
2022-12-12T13:37:51.074Z,100538.53
2022-12-12T13:40:25.528Z,100542.47
2022-12-12T13:43:05.683Z,100545.91
2022-12-12T13:45:40.062Z,100538.59
2022-12-12T13:48:29.348Z,100548.66
2022-12-12T13:51:27.321Z,100557.81
2022-12-12T13:54:13.322Z,100556.03
2022-12-12T13:56:59.658Z,100557.00
2022-12-12T13:59:25.927Z,100557.19
2022-12-12T14:01:58.614Z,100554.41
2022-12-12T14:04:30.999Z,100553.28
2022-12-12T14:07:00.616Z,100547.91
2022-12-12T14:09:46.588Z,100550.03
2022-12-12T14:12:31.555Z,100554.91
2022-12-12T14:15:01.973Z,100554.44
2022-12-12T14:17:38.386Z,100550.69
2022-12-12T14:20:23.042Z,100552.97
2022-12-12T14:22:49.345Z,100557.19
2022-12-12T14:25:17.239Z,100564.50
2022-12-12T14:27:51.365Z,100557.19
2022-12-12T14:30:22.358Z,100559.47
2022-12-12T14:33:01.095Z,100562.56
2022-12-12T14:35:57.547Z,100562.72
2022-12-12T14:38:48.117Z,100569.38
2022-12-12T14:41:20.009Z,100571.31
2022-12-12T14:44:37.085Z,100565.66
2022-12-12T14:46:44.103Z,100569.72
2022-12-12T14:49:17.906Z,100572.28
2022-12-12T14:51:49.215Z,100565.94
2022-12-12T14:54:20.197Z,100575.41
2022-12-12T14:56:53.136Z,100571.63
2022-12-12T14:59:26.212Z,100573.13
2022-12-12T15:01:57.927Z,100584.81
2022-12-12T15:04:28.962Z,100583.69
2022-12-12T15:06:55.863Z,100583.78
2022-12-12T15:09:34.373Z,100582.13
2022-12-12T15:12:11.614Z,100588.47
2022-12-12T15:14:51.778Z,100576.25
2022-12-12T15:17:48.387Z,100576.03
2022-12-12T15:20:18.679Z,100579.75
2022-12-12T15:22:57.755Z,100570.91
2022-12-12T15:25:27.698Z,100575.75
2022-12-12T15:27:56.630Z,100575.75
2022-12-12T15:30:33.104Z,100577.91
2022-12-12T15:33:01.959Z,100579.50
2022-12-12T15:35:28.928Z,100583.81
2022-12-12T15:37:59.775Z,100586.22
2022-12-12T15:40:30.866Z,100592.16
2022-12-12T15:43:03.177Z,100592.13
2022-12-12T15:45:36.756Z,100587.84
2022-12-12T15:48:05.160Z,100589.59
2022-12-12T15:50:37.189Z,100588.59
2022-12-12T15:53:08.528Z,100583.19
2022-12-12T15:55:35.332Z,100593.53
2022-12-12T15:58:02.335Z,100591.53
2022-12-12T16:00:33.824Z,100595.81
2022-12-12T16:03:07.175Z,100601.44
2022-12-12T16:05:38.354Z,100599.94
2022-12-12T16:08:34.525Z,100597.91
2022-12-12T16:11:04.459Z,100599.84
2022-12-12T16:13:41.542Z,100602.50
2022-12-12T16:16:38.033Z,100597.63
2022-12-12T16:19:21.820Z,100600.19
2022-12-12T16:21:48.550Z,100601.41
2022-12-12T16:24:24.695Z,100603.44
2022-12-12T16:26:58.627Z,100600.50
2022-12-12T16:29:26.565Z,100594.78
2022-12-12T16:31:53.289Z,100597.31
2022-12-12T16:34:19.710Z,100591.91
2022-12-12T16:36:46.507Z,100598.34
2022-12-12T16:39:13.759Z,100594.28
2022-12-12T16:41:40.669Z,100595.19
2022-12-12T16:44:07.766Z,100606.50
2022-12-12T16:46:34.280Z,100598.03
2022-12-12T16:49:04.487Z,100597.03
2022-12-12T16:51:33.941Z,100602.31
2022-12-12T16:54:00.609Z,100603.75
2022-12-12T16:56:27.343Z,100604.34
2022-12-12T16:58:56.171Z,100609.63
2022-12-12T17:01:23.180Z,100614.66
2022-12-12T17:03:49.756Z,100609.72
2022-12-12T17:06:16.578Z,100612.00
2022-12-12T17:08:42.897Z,100605.94
2022-12-12T17:11:11.197Z,100605.72
2022-12-12T17:13:39.113Z,100622.25
2022-12-12T17:16:05.684Z,100627.25
2022-12-12T17:18:32.236Z,100626.75
2022-12-12T17:20:58.613Z,100628.47
2022-12-12T17:23:27.967Z,100625.50
2022-12-12T17:25:59.099Z,100629.69
2022-12-12T17:28:30.256Z,100627.53
2022-12-12T17:30:56.724Z,100628.94
2022-12-12T17:33:23.094Z,100633.13
2022-12-12T17:36:06.270Z,100639.53
2022-12-12T17:38:33.610Z,100644.72
2022-12-12T17:41:04.147Z,100640.94
2022-12-12T17:43:30.686Z,100639.28
2022-12-12T17:45:59.754Z,100643.97
2022-12-12T17:48:31.151Z,100638.25
2022-12-12T17:51:03.743Z,100634.69
2022-12-12T17:53:38.134Z,100634.41
2022-12-12T17:56:08.828Z,100634.69
2022-12-12T17:58:41.052Z,100630.63
2022-12-12T18:01:20.885Z,100630.38
2022-12-12T18:03:48.148Z,100636.72
2022-12-12T18:06:15.499Z,100639.22
2022-12-12T18:08:42.087Z,100628.84
2022-12-12T18:11:10.388Z,100627.50
2022-12-12T18:13:38.600Z,100632.47
2022-12-12T18:16:06.136Z,100624.78
2022-12-12T18:18:32.711Z,100624.56
2022-12-12T18:24:07.891Z,100626.56
2022-12-12T18:26:34.659Z,100624.13
2022-12-12T18:29:04.466Z,100624.72
2022-12-12T18:31:31.893Z,100624.22
2022-12-12T18:33:58.577Z,100632.47
2022-12-12T18:36:27.702Z,100627.28
2022-12-12T18:38:59.524Z,100622.34
2022-12-12T18:41:27.495Z,100621.81
2022-12-12T18:43:55.014Z,100622.13
2022-12-12T18:46:24.789Z,100619.38
2022-12-12T18:48:51.219Z,100627.13
2022-12-12T18:51:20.386Z,100626.56
2022-12-12T18:53:47.589Z,100623.31
2022-12-12T18:56:23.028Z,100622.78
2022-12-12T18:58:49.811Z,100617.59
2022-12-12T19:01:19.129Z,100617.88
2022-12-12T19:03:48.539Z,100620.94
2022-12-12T19:06:18.548Z,100620.72
2022-12-12T19:08:45.011Z,100620.19
2022-12-12T19:11:12.665Z,100618.84
2022-12-12T19:13:39.289Z,100617.22
2022-12-12T19:16:08.160Z,100621.38
2022-12-12T19:18:35.828Z,100610.94
2022-12-12T19:21:11.835Z,100612.38
2022-12-12T19:23:39.184Z,100614.63
2022-12-12T19:26:13.910Z,100614.88
2022-12-12T19:28:40.420Z,100619.06
2022-12-12T19:31:09.594Z,100614.13
2022-12-12T19:33:38.405Z,100611.38
2022-12-12T19:36:17.855Z,100611.97
2022-12-12T19:38:45.476Z,100612.28
2022-12-12T19:41:14.726Z,100610.66
2022-12-12T19:43:43.092Z,100613.69
2022-12-12T19:46:21.651Z,100620.28
2022-12-12T19:48:49.047Z,100619.47
2022-12-12T19:51:18.161Z,100625.28
2022-12-12T19:53:46.746Z,100618.94
2022-12-12T19:56:15.172Z,100618.41
2022-12-12T19:58:43.675Z,100619.53
2022-12-12T20:01:18.200Z,100617.59
2022-12-12T20:03:56.650Z,100611.34
2022-12-12T20:06:24.690Z,100611.34
2022-12-12T20:08:51.866Z,100615.53
2022-12-12T20:11:21.194Z,100615.28
2022-12-12T20:13:55.738Z,100604.88
2022-12-12T20:16:25.468Z,100607.91
2022-12-12T20:18:53.386Z,100601.59
2022-12-12T20:21:51.810Z,100608.50
2022-12-12T20:24:10.012Z,100609.59
2022-12-12T20:26:39.397Z,100608.78
2022-12-12T20:29:07.262Z,100601.66
2022-12-12T20:31:36.976Z,100601.13
2022-12-12T20:34:03.972Z,100603.34
2022-12-12T20:36:33.998Z,100601.72
2022-12-12T20:39:03.225Z,100601.50
2022-12-12T20:41:32.583Z,100598.22
2022-12-12T20:43:59.777Z,100613.03
2022-12-12T20:46:32.532Z,100615.84
2022-12-12T20:49:00.901Z,100619.41
2022-12-12T20:51:59.012Z,100614.22
2022-12-12T20:54:19.824Z,100615.84
2022-12-12T20:56:47.391Z,100616.44
2022-12-12T20:59:14.608Z,100618.94
2022-12-12T21:01:41.932Z,100623.91
2022-12-12T21:04:09.364Z,100621.75
2022-12-12T21:06:38.947Z,100631.38
2022-12-12T21:09:09.429Z,100628.94
2022-12-12T21:11:37.852Z,100633.91
2022-12-12T21:14:04.859Z,100628.69
2022-12-12T21:16:34.883Z,100625.41
2022-12-12T21:19:05.338Z,100632.03
2022-12-12T21:21:31.946Z,100638.59
2022-12-12T21:23:59.213Z,100637.28
2022-12-12T21:26:29.145Z,100638.38
2022-12-12T21:28:56.410Z,100632.88
2022-12-12T21:31:28.463Z,100636.19
2022-12-12T21:33:55.167Z,100631.81
2022-12-12T21:36:23.864Z,100638.44
2022-12-12T21:38:52.133Z,100639.81
2022-12-12T21:41:20.133Z,100640.63
2022-12-12T21:43:48.395Z,100645.84
2022-12-12T21:46:22.113Z,100642.84
2022-12-12T21:49:12.170Z,100641.22
2022-12-12T21:51:42.011Z,100639.34
2022-12-12T21:54:09.749Z,100636.88
2022-12-12T21:56:36.821Z,100633.59
2022-12-12T21:59:03.927Z,100633.91
2022-12-12T22:01:32.480Z,100630.59
2022-12-12T22:04:00.152Z,100632.84
2022-12-12T22:06:29.402Z,100622.13
2022-12-12T22:08:56.449Z,100626.78
2022-12-12T22:11:34.362Z,100627.09
2022-12-12T22:14:08.673Z,100627.38
2022-12-12T22:16:35.605Z,100625.47
2022-12-12T22:19:07.107Z,100628.75
2022-12-12T22:21:34.800Z,100627.94
2022-12-12T22:24:01.747Z,100630.19
2022-12-12T22:26:29.680Z,100626.06
2022-12-12T22:29:01.953Z,100622.81
2022-12-12T22:31:34.416Z,100625.00
2022-12-12T22:34:03.683Z,100622.56
2022-12-12T22:36:32.263Z,100622.03
2022-12-12T22:39:00.011Z,100620.66
2022-12-12T22:41:28.892Z,100623.69
2022-12-12T22:43:57.468Z,100618.47
2022-12-12T22:46:26.469Z,100623.44
2022-12-12T22:48:56.923Z,100620.19
2022-12-12T22:51:32.594Z,100617.19
2022-12-12T22:54:01.684Z,100615.56
2022-12-12T22:56:29.126Z,100613.38
2022-12-12T22:58:55.549Z,100619.16
2022-12-12T23:01:23.119Z,100618.06
2022-12-12T23:03:50.480Z,100626.31
2022-12-12T23:06:30.106Z,100617.53
2022-12-12T23:09:00.879Z,100617.00
2022-12-12T23:11:29.807Z,100613.44
2022-12-12T23:14:00.198Z,100621.94
2022-12-12T23:16:31.059Z,100618.38
2022-12-12T23:18:58.774Z,100612.38
2022-12-12T23:21:26.230Z,100616.22
2022-12-12T23:23:54.451Z,100615.97
2022-12-12T23:26:27.074Z,100611.03
2022-12-12T23:28:53.521Z,100621.19
2022-12-12T23:31:26.609Z,100608.88
2022-12-12T23:33:59.248Z,100614.63
2022-12-12T23:36:27.459Z,100622.03
2022-12-12T23:38:58.509Z,100616.03
2022-12-12T23:41:25.690Z,100618.22
2022-12-12T23:43:52.491Z,100618.50
2022-12-12T23:46:29.850Z,100615.25
2022-12-12T23:49:25.632Z,100615.00
2022-12-12T23:51:55.579Z,100617.72
2022-12-12T23:54:24.472Z,100604.59
2022-12-12T23:56:52.354Z,100607.63
2022-12-12T23:59:20.835Z,100608.47
